sensor_id;sensor_type;location;lat;lon;timestamp;P1;durP1;ratioP1;P2;durP2;ratioP2
57778;SDS011;43608;49.486;9.640;2022-12-20T00:00:15;22.15;;;13.98;;
57778;SDS011;43608;49.486;9.640;2022-12-20T00:00:46;21.20;;;13.38;;
57778;SDS011;43608;49.486;9.640;2022-12-20T00:01:17;18.67;;;12.60;;
57778;SDS011;43608;49.486;9.640;2022-12-20T00:01:50;22.55;;;13.70;;
57778;SDS011;43608;49.486;9.640;2022-12-20T00:02:21;20.60;;;13.43;;
57778;SDS011;43608;49.486;9.640;2022-12-20T00:02:51;19.00;;;12.98;;
57778;SDS011;43608;49.486;9.640;2022-12-20T00:03:21;20.05;;;12.98;;
57778;SDS011;43608;49.486;9.640;2022-12-20T00:03:52;21.27;;;13.52;;
57778;SDS011;43608;49.486;9.640;2022-12-20T00:04:25;19.63;;;12.93;;
57778;SDS011;43608;49.486;9.640;2022-12-20T00:04:55;19.88;;;13.07;;
57778;SDS011;43608;49.486;9.640;2022-12-20T00:05:26;21.90;;;13.38;;
57778;SDS011;43608;49.486;9.640;2022-12-20T00:05:56;21.35;;;13.05;;
57778;SDS011;43608;49.486;9.640;2022-12-20T00:06:27;19.45;;;13.18;;
57778;SDS011;43608;49.486;9.640;2022-12-20T00:06:58;18.83;;;12.05;;
57778;SDS011;43608;49.486;9.640;2022-12-20T00:07:28;21.20;;;12.88;;
57778;SDS011;43608;49.486;9.640;2022-12-20T00:07:59;20.83;;;13.48;;
57778;SDS011;43608;49.486;9.640;2022-12-20T00:08:29;22.02;;;14.25;;
57778;SDS011;43608;49.486;9.640;2022-12-20T00:09:00;21.63;;;13.75;;
57778;SDS011;43608;49.486;9.640;2022-12-20T00:09:32;21.75;;;13.48;;
57778;SDS011;43608;49.486;9.640;2022-12-20T00:10:03;19.38;;;13.15;;
57778;SDS011;43608;49.486;9.640;2022-12-20T00:10:34;19.45;;;13.27;;
57778;SDS011;43608;49.486;9.640;2022-12-20T00:11:06;21.10;;;13.75;;
57778;SDS011;43608;49.486;9.640;2022-12-20T00:11:38;20.35;;;13.43;;
57778;SDS011;43608;49.486;9.640;2022-12-20T00:12:10;18.80;;;13.07;;
57778;SDS011;43608;49.486;9.640;2022-12-20T00:12:40;21.13;;;13.85;;
57778;SDS011;43608;49.486;9.640;2022-12-20T00:13:11;22.75;;;13.95;;
57778;SDS011;43608;49.486;9.640;2022-12-20T00:13:41;18.60;;;12.48;;
57778;SDS011;43608;49.486;9.640;2022-12-20T00:14:16;19.30;;;12.98;;
57778;SDS011;43608;49.486;9.640;2022-12-20T00:14:46;20.27;;;13.70;;
57778;SDS011;43608;49.486;9.640;2022-12-20T00:15:17;21.17;;;13.98;;
57778;SDS011;43608;49.486;9.640;2022-12-20T00:15:47;22.33;;;13.93;;
57778;SDS011;43608;49.486;9.640;2022-12-20T00:16:19;22.58;;;14.15;;
57778;SDS011;43608;49.486;9.640;2022-12-20T00:16:51;20.90;;;13.80;;
57778;SDS011;43608;49.486;9.640;2022-12-20T00:17:21;20.58;;;13.68;;
57778;SDS011;43608;49.486;9.640;2022-12-20T00:17:51;22.38;;;14.60;;
57778;SDS011;43608;49.486;9.640;2022-12-20T00:18:22;20.80;;;13.85;;
57778;SDS011;43608;49.486;9.640;2022-12-20T00:18:53;20.65;;;13.77;;
57778;SDS011;43608;49.486;9.640;2022-12-20T00:19:25;22.52;;;14.32;;
57778;SDS011;43608;49.486;9.640;2022-12-20T00:19:55;21.00;;;13.75;;
57778;SDS011;43608;49.486;9.640;2022-12-20T00:20:26;21.05;;;14.15;;
57778;SDS011;43608;49.486;9.640;2022-12-20T00:20:58;21.25;;;14.20;;
57778;SDS011;43608;49.486;9.640;2022-12-20T00:21:29;23.92;;;15.07;;
57778;SDS011;43608;49.486;9.640;2022-12-20T00:22:01;23.33;;;15.13;;
57778;SDS011;43608;49.486;9.640;2022-12-20T00:22:31;23.88;;;15.02;;
57778;SDS011;43608;49.486;9.640;2022-12-20T00:23:02;22.33;;;14.40;;
57778;SDS011;43608;49.486;9.640;2022-12-20T00:23:32;23.33;;;15.10;;
57778;SDS011;43608;49.486;9.640;2022-12-20T00:24:04;21.98;;;14.20;;
57778;SDS011;43608;49.486;9.640;2022-12-20T00:24:35;20.95;;;13.55;;
57778;SDS011;43608;49.486;9.640;2022-12-20T00:25:06;22.63;;;14.40;;
57778;SDS011;43608;49.486;9.640;2022-12-20T00:25:36;22.80;;;14.82;;
57778;SDS011;43608;49.486;9.640;2022-12-20T00:26:08;23.45;;;14.23;;
57778;SDS011;43608;49.486;9.640;2022-12-20T00:26:41;22.60;;;14.30;;
57778;SDS011;43608;49.486;9.640;2022-12-20T00:27:11;21.08;;;14.07;;
57778;SDS011;43608;49.486;9.640;2022-12-20T00:27:41;21.13;;;13.68;;
57778;SDS011;43608;49.486;9.640;2022-12-20T00:28:12;22.10;;;14.55;;
57778;SDS011;43608;49.486;9.640;2022-12-20T00:28:42;21.67;;;13.85;;
57778;SDS011;43608;49.486;9.640;2022-12-20T00:29:14;20.42;;;13.38;;
57778;SDS011;43608;49.486;9.640;2022-12-20T00:29:44;21.58;;;13.68;;
57778;SDS011;43608;49.486;9.640;2022-12-20T00:30:15;20.98;;;13.68;;
57778;SDS011;43608;49.486;9.640;2022-12-20T00:30:46;20.05;;;13.05;;
57778;SDS011;43608;49.486;9.640;2022-12-20T00:31:23;19.55;;;13.00;;
57778;SDS011;43608;49.486;9.640;2022-12-20T00:31:54;22.45;;;14.48;;
57778;SDS011;43608;49.486;9.640;2022-12-20T00:32:25;20.70;;;13.60;;
57778;SDS011;43608;49.486;9.640;2022-12-20T00:32:56;20.92;;;13.88;;
57778;SDS011;43608;49.486;9.640;2022-12-20T00:33:26;22.40;;;13.48;;
57778;SDS011;43608;49.486;9.640;2022-12-20T00:33:57;19.52;;;13.25;;
57778;SDS011;43608;49.486;9.640;2022-12-20T00:34:29;19.83;;;13.02;;
57778;SDS011;43608;49.486;9.640;2022-12-20T00:34:59;22.98;;;13.95;;
57778;SDS011;43608;49.486;9.640;2022-12-20T00:35:29;20.90;;;13.13;;
57778;SDS011;43608;49.486;9.640;2022-12-20T00:36:00;18.23;;;12.93;;
57778;SDS011;43608;49.486;9.640;2022-12-20T00:36:30;21.52;;;14.07;;
57778;SDS011;43608;49.486;9.640;2022-12-20T00:37:02;23.42;;;14.52;;
57778;SDS011;43608;49.486;9.640;2022-12-20T00:37:32;22.05;;;14.13;;
57778;SDS011;43608;49.486;9.640;2022-12-20T00:38:02;24.25;;;15.75;;
57778;SDS011;43608;49.486;9.640;2022-12-20T00:38:33;22.35;;;14.75;;
57778;SDS011;43608;49.486;9.640;2022-12-20T00:39:04;22.90;;;14.45;;
57778;SDS011;43608;49.486;9.640;2022-12-20T00:39:34;21.27;;;14.63;;
57778;SDS011;43608;49.486;9.640;2022-12-20T00:40:05;24.30;;;15.15;;
57778;SDS011;43608;49.486;9.640;2022-12-20T00:40:36;21.60;;;14.25;;
57778;SDS011;43608;49.486;9.640;2022-12-20T00:41:08;23.35;;;14.82;;
57778;SDS011;43608;49.486;9.640;2022-12-20T00:41:39;23.85;;;15.02;;
57778;SDS011;43608;49.486;9.640;2022-12-20T00:42:10;22.60;;;14.55;;
57778;SDS011;43608;49.486;9.640;2022-12-20T00:42:40;24.83;;;15.60;;
57778;SDS011;43608;49.486;9.640;2022-12-20T00:43:10;24.50;;;15.45;;
57778;SDS011;43608;49.486;9.640;2022-12-20T00:43:42;24.33;;;15.30;;
57778;SDS011;43608;49.486;9.640;2022-12-20T00:44:12;22.90;;;15.32;;
57778;SDS011;43608;49.486;9.640;2022-12-20T00:44:43;23.85;;;14.07;;
57778;SDS011;43608;49.486;9.640;2022-12-20T00:45:13;22.27;;;14.68;;
57778;SDS011;43608;49.486;9.640;2022-12-20T00:45:43;22.90;;;14.20;;
57778;SDS011;43608;49.486;9.640;2022-12-20T00:46:14;23.10;;;14.57;;
57778;SDS011;43608;49.486;9.640;2022-12-20T00:46:46;21.85;;;14.57;;
57778;SDS011;43608;49.486;9.640;2022-12-20T00:47:16;21.35;;;14.10;;
57778;SDS011;43608;49.486;9.640;2022-12-20T00:47:47;21.15;;;14.18;;
57778;SDS011;43608;49.486;9.640;2022-12-20T00:48:17;22.88;;;13.88;;
57778;SDS011;43608;49.486;9.640;2022-12-20T00:48:48;22.00;;;13.85;;
57778;SDS011;43608;49.486;9.640;2022-12-20T00:49:18;20.08;;;13.27;;
57778;SDS011;43608;49.486;9.640;2022-12-20T00:49:48;21.50;;;13.63;;
57778;SDS011;43608;49.486;9.640;2022-12-20T00:50:19;22.33;;;14.07;;
57778;SDS011;43608;49.486;9.640;2022-12-20T00:50:49;22.23;;;14.10;;
57778;SDS011;43608;49.486;9.640;2022-12-20T00:51:21;19.33;;;13.38;;
57778;SDS011;43608;49.486;9.640;2022-12-20T00:51:54;23.02;;;14.80;;
57778;SDS011;43608;49.486;9.640;2022-12-20T00:52:24;24.08;;;14.50;;
57778;SDS011;43608;49.486;9.640;2022-12-20T00:52:54;23.20;;;14.30;;
57778;SDS011;43608;49.486;9.640;2022-12-20T00:53:25;21.10;;;14.15;;
57778;SDS011;43608;49.486;9.640;2022-12-20T00:53:55;21.20;;;13.82;;
57778;SDS011;43608;49.486;9.640;2022-12-20T00:54:25;20.73;;;13.70;;
57778;SDS011;43608;49.486;9.640;2022-12-20T00:54:56;21.27;;;14.00;;
57778;SDS011;43608;49.486;9.640;2022-12-20T00:55:26;22.50;;;13.85;;
57778;SDS011;43608;49.486;9.640;2022-12-20T00:55:57;24.00;;;14.27;;
57778;SDS011;43608;49.486;9.640;2022-12-20T00:56:28;21.60;;;14.02;;
57778;SDS011;43608;49.486;9.640;2022-12-20T00:56:58;20.92;;;14.05;;
57778;SDS011;43608;49.486;9.640;2022-12-20T00:57:29;21.05;;;13.82;;
57778;SDS011;43608;49.486;9.640;2022-12-20T00:57:59;20.80;;;13.68;;
57778;SDS011;43608;49.486;9.640;2022-12-20T00:58:30;21.50;;;13.57;;
57778;SDS011;43608;49.486;9.640;2022-12-20T00:59:02;22.98;;;14.13;;
57778;SDS011;43608;49.486;9.640;2022-12-20T00:59:32;20.92;;;13.50;;
57778;SDS011;43608;49.486;9.640;2022-12-20T01:00:03;20.50;;;13.77;;
57778;SDS011;43608;49.486;9.640;2022-12-20T01:00:34;20.15;;;13.65;;
57778;SDS011;43608;49.486;9.640;2022-12-20T01:01:05;20.63;;;13.85;;
57778;SDS011;43608;49.486;9.640;2022-12-20T01:01:43;19.27;;;13.10;;
57778;SDS011;43608;49.486;9.640;2022-12-20T01:02:14;19.70;;;13.02;;
57778;SDS011;43608;49.486;9.640;2022-12-20T01:02:44;20.55;;;13.25;;
57778;SDS011;43608;49.486;9.640;2022-12-20T01:03:14;22.27;;;14.23;;
57778;SDS011;43608;49.486;9.640;2022-12-20T01:03:45;22.30;;;14.10;;
57778;SDS011;43608;49.486;9.640;2022-12-20T01:04:15;23.38;;;14.38;;
57778;SDS011;43608;49.486;9.640;2022-12-20T01:04:47;22.35;;;14.77;;
57778;SDS011;43608;49.486;9.640;2022-12-20T01:05:19;22.90;;;14.88;;
57778;SDS011;43608;49.486;9.640;2022-12-20T01:06:08;23.02;;;14.70;;
57778;SDS011;43608;49.486;9.640;2022-12-20T01:07:09;23.30;;;14.10;;
57778;SDS011;43608;49.486;9.640;2022-12-20T01:07:40;23.65;;;15.15;;
57778;SDS011;43608;49.486;9.640;2022-12-20T01:08:10;24.85;;;15.70;;
57778;SDS011;43608;49.486;9.640;2022-12-20T01:08:41;27.27;;;16.10;;
57778;SDS011;43608;49.486;9.640;2022-12-20T01:09:11;26.48;;;16.42;;
57778;SDS011;43608;49.486;9.640;2022-12-20T01:09:42;26.42;;;16.67;;
57778;SDS011;43608;49.486;9.640;2022-12-20T01:10:12;25.15;;;16.23;;
57778;SDS011;43608;49.486;9.640;2022-12-20T01:10:43;25.75;;;15.98;;
57778;SDS011;43608;49.486;9.640;2022-12-20T01:11:46;25.55;;;16.20;;
57778;SDS011;43608;49.486;9.640;2022-12-20T01:12:16;26.65;;;15.98;;
57778;SDS011;43608;49.486;9.640;2022-12-20T01:12:47;26.48;;;16.23;;
57778;SDS011;43608;49.486;9.640;2022-12-20T01:13:17;25.08;;;16.17;;
57778;SDS011;43608;49.486;9.640;2022-12-20T01:13:48;26.23;;;16.30;;
57778;SDS011;43608;49.486;9.640;2022-12-20T01:14:21;23.65;;;15.70;;
57778;SDS011;43608;49.486;9.640;2022-12-20T01:14:52;26.85;;;16.38;;
57778;SDS011;43608;49.486;9.640;2022-12-20T01:15:22;24.73;;;15.75;;
57778;SDS011;43608;49.486;9.640;2022-12-20T01:15:53;23.58;;;15.65;;
57778;SDS011;43608;49.486;9.640;2022-12-20T01:16:25;23.27;;;15.13;;
57778;SDS011;43608;49.486;9.640;2022-12-20T01:17:00;22.20;;;14.50;;
57778;SDS011;43608;49.486;9.640;2022-12-20T01:17:31;21.30;;;14.48;;
57778;SDS011;43608;49.486;9.640;2022-12-20T01:18:01;23.52;;;14.85;;
57778;SDS011;43608;49.486;9.640;2022-12-20T01:18:31;23.00;;;14.15;;
57778;SDS011;43608;49.486;9.640;2022-12-20T01:19:02;22.90;;;13.98;;
57778;SDS011;43608;49.486;9.640;2022-12-20T01:19:33;20.95;;;13.88;;
57778;SDS011;43608;49.486;9.640;2022-12-20T01:20:04;21.88;;;14.18;;
57778;SDS011;43608;49.486;9.640;2022-12-20T01:20:35;21.70;;;14.15;;
57778;SDS011;43608;49.486;9.640;2022-12-20T01:21:07;21.63;;;14.20;;
57778;SDS011;43608;49.486;9.640;2022-12-20T01:21:39;23.52;;;14.52;;
57778;SDS011;43608;49.486;9.640;2022-12-20T01:22:13;20.85;;;13.23;;
57778;SDS011;43608;49.486;9.640;2022-12-20T01:22:43;23.85;;;14.50;;
57778;SDS011;43608;49.486;9.640;2022-12-20T01:23:14;22.17;;;14.07;;
57778;SDS011;43608;49.486;9.640;2022-12-20T01:23:44;20.95;;;13.60;;
57778;SDS011;43608;49.486;9.640;2022-12-20T01:24:16;22.42;;;14.15;;
57778;SDS011;43608;49.486;9.640;2022-12-20T01:24:49;23.02;;;13.95;;
57778;SDS011;43608;49.486;9.640;2022-12-20T01:25:19;21.85;;;13.65;;
57778;SDS011;43608;49.486;9.640;2022-12-20T01:25:50;23.80;;;14.20;;
57778;SDS011;43608;49.486;9.640;2022-12-20T01:26:21;23.50;;;14.48;;
57778;SDS011;43608;49.486;9.640;2022-12-20T01:26:53;22.65;;;14.82;;
57778;SDS011;43608;49.486;9.640;2022-12-20T01:27:24;24.25;;;14.77;;
57778;SDS011;43608;49.486;9.640;2022-12-20T01:27:55;24.73;;;15.13;;
57778;SDS011;43608;49.486;9.640;2022-12-20T01:28:25;22.58;;;14.70;;
57778;SDS011;43608;49.486;9.640;2022-12-20T01:28:58;23.67;;;14.18;;
57778;SDS011;43608;49.486;9.640;2022-12-20T01:29:29;22.00;;;14.40;;
57778;SDS011;43608;49.486;9.640;2022-12-20T01:29:59;21.67;;;14.15;;
57778;SDS011;43608;49.486;9.640;2022-12-20T01:30:30;23.65;;;14.75;;
57778;SDS011;43608;49.486;9.640;2022-12-20T01:31:00;22.48;;;14.73;;
57778;SDS011;43608;49.486;9.640;2022-12-20T01:31:31;22.80;;;15.02;;
57778;SDS011;43608;49.486;9.640;2022-12-20T01:32:01;21.40;;;13.43;;
57778;SDS011;43608;49.486;9.640;2022-12-20T01:32:31;22.85;;;14.65;;
57778;SDS011;43608;49.486;9.640;2022-12-20T01:33:02;21.58;;;13.63;;
57778;SDS011;43608;49.486;9.640;2022-12-20T01:33:32;22.80;;;14.65;;
57778;SDS011;43608;49.486;9.640;2022-12-20T01:34:03;23.27;;;14.40;;
57778;SDS011;43608;49.486;9.640;2022-12-20T01:34:34;21.95;;;14.30;;
57778;SDS011;43608;49.486;9.640;2022-12-20T01:35:04;24.65;;;14.85;;
57778;SDS011;43608;49.486;9.640;2022-12-20T01:35:35;20.23;;;13.45;;
57778;SDS011;43608;49.486;9.640;2022-12-20T01:36:06;22.38;;;13.60;;
57778;SDS011;43608;49.486;9.640;2022-12-20T01:36:39;22.45;;;13.88;;
57778;SDS011;43608;49.486;9.640;2022-12-20T01:37:10;21.33;;;14.23;;
57778;SDS011;43608;49.486;9.640;2022-12-20T01:37:40;22.00;;;14.52;;
57778;SDS011;43608;49.486;9.640;2022-12-20T01:38:11;22.50;;;14.57;;
57778;SDS011;43608;49.486;9.640;2022-12-20T01:38:42;22.42;;;14.38;;
57778;SDS011;43608;49.486;9.640;2022-12-20T01:39:14;22.13;;;15.00;;
57778;SDS011;43608;49.486;9.640;2022-12-20T01:39:45;23.42;;;14.82;;
57778;SDS011;43608;49.486;9.640;2022-12-20T01:40:16;23.02;;;15.18;;
57778;SDS011;43608;49.486;9.640;2022-12-20T01:40:46;23.60;;;15.30;;
57778;SDS011;43608;49.486;9.640;2022-12-20T01:41:17;24.50;;;15.05;;
57778;SDS011;43608;49.486;9.640;2022-12-20T01:41:50;22.05;;;14.73;;
57778;SDS011;43608;49.486;9.640;2022-12-20T01:42:20;22.83;;;14.68;;
57778;SDS011;43608;49.486;9.640;2022-12-20T01:42:50;21.02;;;14.10;;
57778;SDS011;43608;49.486;9.640;2022-12-20T01:43:21;22.85;;;14.73;;
57778;SDS011;43608;49.486;9.640;2022-12-20T01:43:53;22.77;;;14.35;;
57778;SDS011;43608;49.486;9.640;2022-12-20T01:44:59;22.50;;;14.25;;
57778;SDS011;43608;49.486;9.640;2022-12-20T01:45:30;22.42;;;13.77;;
57778;SDS011;43608;49.486;9.640;2022-12-20T01:46:01;22.08;;;14.32;;
57778;SDS011;43608;49.486;9.640;2022-12-20T01:46:32;23.45;;;14.57;;
57778;SDS011;43608;49.486;9.640;2022-12-20T01:47:03;24.25;;;14.63;;
57778;SDS011;43608;49.486;9.640;2022-12-20T01:47:34;21.38;;;14.43;;
57778;SDS011;43608;49.486;9.640;2022-12-20T01:48:06;24.38;;;15.30;;
57778;SDS011;43608;49.486;9.640;2022-12-20T01:48:37;24.48;;;15.35;;
57778;SDS011;43608;49.486;9.640;2022-12-20T01:49:28;22.08;;;15.15;;
57778;SDS011;43608;49.486;9.640;2022-12-20T01:50:03;24.75;;;15.48;;
57778;SDS011;43608;49.486;9.640;2022-12-20T01:50:34;23.80;;;15.02;;
57778;SDS011;43608;49.486;9.640;2022-12-20T01:51:05;24.33;;;15.57;;
57778;SDS011;43608;49.486;9.640;2022-12-20T01:51:38;25.88;;;16.73;;
57778;SDS011;43608;49.486;9.640;2022-12-20T01:52:19;24.80;;;15.93;;
57778;SDS011;43608;49.486;9.640;2022-12-20T01:52:56;23.15;;;14.55;;
57778;SDS011;43608;49.486;9.640;2022-12-20T01:53:29;26.42;;;15.95;;
57778;SDS011;43608;49.486;9.640;2022-12-20T01:54:02;24.25;;;15.38;;
57778;SDS011;43608;49.486;9.640;2022-12-20T01:54:40;25.88;;;16.10;;
57778;SDS011;43608;49.486;9.640;2022-12-20T01:55:24;25.05;;;15.48;;
57778;SDS011;43608;49.486;9.640;2022-12-20T01:55:57;23.27;;;15.10;;
57778;SDS011;43608;49.486;9.640;2022-12-20T01:56:33;22.88;;;14.50;;
57778;SDS011;43608;49.486;9.640;2022-12-20T01:57:06;22.90;;;14.25;;
57778;SDS011;43608;49.486;9.640;2022-12-20T01:58:24;23.60;;;14.95;;
57778;SDS011;43608;49.486;9.640;2022-12-20T01:58:55;23.73;;;15.23;;
57778;SDS011;43608;49.486;9.640;2022-12-20T01:59:27;22.77;;;14.50;;
57778;SDS011;43608;49.486;9.640;2022-12-20T01:59:58;25.25;;;15.20;;
57778;SDS011;43608;49.486;9.640;2022-12-20T02:00:28;23.48;;;14.95;;
57778;SDS011;43608;49.486;9.640;2022-12-20T02:00:59;21.23;;;14.35;;
57778;SDS011;43608;49.486;9.640;2022-12-20T02:01:29;23.90;;;15.57;;
57778;SDS011;43608;49.486;9.640;2022-12-20T02:02:00;22.92;;;15.32;;
57778;SDS011;43608;49.486;9.640;2022-12-20T02:02:33;24.67;;;15.95;;
57778;SDS011;43608;49.486;9.640;2022-12-20T02:03:06;23.45;;;15.30;;
57778;SDS011;43608;49.486;9.640;2022-12-20T02:03:38;22.70;;;14.85;;
57778;SDS011;43608;49.486;9.640;2022-12-20T02:04:11;24.33;;;14.95;;
57778;SDS011;43608;49.486;9.640;2022-12-20T02:04:41;23.17;;;14.73;;
57778;SDS011;43608;49.486;9.640;2022-12-20T02:05:12;23.25;;;15.45;;
57778;SDS011;43608;49.486;9.640;2022-12-20T02:05:46;25.20;;;15.73;;
57778;SDS011;43608;49.486;9.640;2022-12-20T02:06:18;22.55;;;14.50;;
57778;SDS011;43608;49.486;9.640;2022-12-20T02:06:50;24.15;;;15.75;;
57778;SDS011;43608;49.486;9.640;2022-12-20T02:07:23;24.05;;;14.98;;
57778;SDS011;43608;49.486;9.640;2022-12-20T02:07:55;23.25;;;14.82;;
57778;SDS011;43608;49.486;9.640;2022-12-20T02:08:26;24.35;;;15.65;;
57778;SDS011;43608;49.486;9.640;2022-12-20T02:08:57;23.15;;;14.60;;
57778;SDS011;43608;49.486;9.640;2022-12-20T02:09:31;24.08;;;14.80;;
57778;SDS011;43608;49.486;9.640;2022-12-20T02:10:04;22.50;;;14.63;;
57778;SDS011;43608;49.486;9.640;2022-12-20T02:10:46;24.05;;;15.15;;
57778;SDS011;43608;49.486;9.640;2022-12-20T02:11:39;20.25;;;12.88;;
57778;SDS011;43608;49.486;9.640;2022-12-20T02:12:47;22.05;;;13.23;;
57778;SDS011;43608;49.486;9.640;2022-12-20T02:15:54;20.90;;;13.23;;
57778;SDS011;43608;49.486;9.640;2022-12-20T02:16:27;25.27;;;14.63;;
57778;SDS011;43608;49.486;9.640;2022-12-20T02:19:00;22.88;;;13.35;;
57778;SDS011;43608;49.486;9.640;2022-12-20T02:20:45;20.30;;;12.93;;
57778;SDS011;43608;49.486;9.640;2022-12-20T02:21:32;22.92;;;13.95;;
57778;SDS011;43608;49.486;9.640;2022-12-20T02:22:15;21.10;;;13.40;;
57778;SDS011;43608;49.486;9.640;2022-12-20T02:24:01;21.38;;;12.80;;
57778;SDS011;43608;49.486;9.640;2022-12-20T02:24:59;21.10;;;13.00;;
57778;SDS011;43608;49.486;9.640;2022-12-20T02:25:51;22.48;;;13.77;;
57778;SDS011;43608;49.486;9.640;2022-12-20T02:28:56;23.50;;;13.48;;
57778;SDS011;43608;49.486;9.640;2022-12-20T02:30:33;23.15;;;13.95;;
57778;SDS011;43608;49.486;9.640;2022-12-20T02:31:08;23.58;;;14.57;;
57778;SDS011;43608;49.486;9.640;2022-12-20T02:31:44;23.30;;;14.35;;
57778;SDS011;43608;49.486;9.640;2022-12-20T02:32:25;24.08;;;15.40;;
57778;SDS011;43608;49.486;9.640;2022-12-20T02:33:03;26.33;;;15.75;;
57778;SDS011;43608;49.486;9.640;2022-12-20T02:33:38;23.20;;;15.05;;
57778;SDS011;43608;49.486;9.640;2022-12-20T02:34:13;23.48;;;14.80;;
57778;SDS011;43608;49.486;9.640;2022-12-20T02:34:45;22.88;;;14.40;;
57778;SDS011;43608;49.486;9.640;2022-12-20T02:35:20;26.90;;;16.15;;
57778;SDS011;43608;49.486;9.640;2022-12-20T02:35:55;23.50;;;15.48;;
57778;SDS011;43608;49.486;9.640;2022-12-20T02:36:25;24.58;;;15.63;;
57778;SDS011;43608;49.486;9.640;2022-12-20T02:36:56;25.15;;;16.10;;
57778;SDS011;43608;49.486;9.640;2022-12-20T02:37:26;26.35;;;16.50;;
57778;SDS011;43608;49.486;9.640;2022-12-20T02:37:57;25.30;;;15.85;;
57778;SDS011;43608;49.486;9.640;2022-12-20T02:38:31;25.92;;;16.40;;
57778;SDS011;43608;49.486;9.640;2022-12-20T02:39:03;24.58;;;15.63;;
57778;SDS011;43608;49.486;9.640;2022-12-20T02:39:33;21.42;;;14.27;;
57778;SDS011;43608;49.486;9.640;2022-12-20T02:40:06;24.67;;;15.65;;
57778;SDS011;43608;49.486;9.640;2022-12-20T02:41:08;25.00;;;15.25;;
57778;SDS011;43608;49.486;9.640;2022-12-20T02:41:59;24.25;;;14.90;;
57778;SDS011;43608;49.486;9.640;2022-12-20T02:42:33;25.17;;;15.60;;
57778;SDS011;43608;49.486;9.640;2022-12-20T02:43:05;26.40;;;15.55;;
57778;SDS011;43608;49.486;9.640;2022-12-20T02:44:03;25.38;;;15.73;;
57778;SDS011;43608;49.486;9.640;2022-12-20T02:44:58;22.33;;;14.35;;
57778;SDS011;43608;49.486;9.640;2022-12-20T02:45:44;22.80;;;14.05;;
57778;SDS011;43608;49.486;9.640;2022-12-20T02:46:16;23.20;;;14.13;;
57778;SDS011;43608;49.486;9.640;2022-12-20T02:46:49;23.02;;;14.05;;
57778;SDS011;43608;49.486;9.640;2022-12-20T02:47:24;24.13;;;14.65;;
57778;SDS011;43608;49.486;9.640;2022-12-20T02:48:09;20.95;;;13.48;;
57778;SDS011;43608;49.486;9.640;2022-12-20T02:48:40;22.90;;;14.57;;
57778;SDS011;43608;49.486;9.640;2022-12-20T02:49:14;20.05;;;13.27;;
57778;SDS011;43608;49.486;9.640;2022-12-20T02:49:47;23.17;;;14.93;;
57778;SDS011;43608;49.486;9.640;2022-12-20T02:50:24;21.58;;;13.73;;
57778;SDS011;43608;49.486;9.640;2022-12-20T02:50:58;20.85;;;13.30;;
57778;SDS011;43608;49.486;9.640;2022-12-20T02:51:30;21.33;;;13.70;;
57778;SDS011;43608;49.486;9.640;2022-12-20T02:52:02;20.70;;;14.02;;
57778;SDS011;43608;49.486;9.640;2022-12-20T02:52:33;20.23;;;13.40;;
57778;SDS011;43608;49.486;9.640;2022-12-20T02:53:05;22.52;;;13.55;;
57778;SDS011;43608;49.486;9.640;2022-12-20T02:53:36;18.95;;;12.93;;
57778;SDS011;43608;49.486;9.640;2022-12-20T02:54:08;20.60;;;13.15;;
57778;SDS011;43608;49.486;9.640;2022-12-20T02:54:38;18.52;;;12.68;;
57778;SDS011;43608;49.486;9.640;2022-12-20T02:55:09;18.80;;;12.27;;
57778;SDS011;43608;49.486;9.640;2022-12-20T02:55:41;20.50;;;12.82;;
57778;SDS011;43608;49.486;9.640;2022-12-20T02:56:19;21.02;;;13.60;;
57778;SDS011;43608;49.486;9.640;2022-12-20T02:56:59;20.42;;;13.43;;
57778;SDS011;43608;49.486;9.640;2022-12-20T02:58:17;24.10;;;14.70;;
57778;SDS011;43608;49.486;9.640;2022-12-20T02:58:59;21.45;;;13.25;;
57778;SDS011;43608;49.486;9.640;2022-12-20T02:59:46;20.23;;;13.35;;
57778;SDS011;43608;49.486;9.640;2022-12-20T03:00:23;20.05;;;12.90;;
57778;SDS011;43608;49.486;9.640;2022-12-20T03:00:54;23.23;;;13.85;;
57778;SDS011;43608;49.486;9.640;2022-12-20T03:01:32;21.70;;;13.35;;
57778;SDS011;43608;49.486;9.640;2022-12-20T03:02:06;20.48;;;13.07;;
57778;SDS011;43608;49.486;9.640;2022-12-20T03:02:38;22.52;;;14.20;;
57778;SDS011;43608;49.486;9.640;2022-12-20T03:03:31;18.55;;;12.65;;
57778;SDS011;43608;49.486;9.640;2022-12-20T03:04:03;21.60;;;13.88;;
57778;SDS011;43608;49.486;9.640;2022-12-20T03:04:35;20.88;;;13.13;;
57778;SDS011;43608;49.486;9.640;2022-12-20T03:05:08;21.85;;;14.18;;
57778;SDS011;43608;49.486;9.640;2022-12-20T03:05:43;19.05;;;12.82;;
57778;SDS011;43608;49.486;9.640;2022-12-20T03:06:15;19.85;;;12.98;;
57778;SDS011;43608;49.486;9.640;2022-12-20T03:06:56;21.02;;;13.07;;
57778;SDS011;43608;49.486;9.640;2022-12-20T03:07:26;19.80;;;12.68;;
57778;SDS011;43608;49.486;9.640;2022-12-20T03:07:58;20.27;;;12.93;;
57778;SDS011;43608;49.486;9.640;2022-12-20T03:08:28;20.55;;;13.18;;
57778;SDS011;43608;49.486;9.640;2022-12-20T03:08:59;21.85;;;13.38;;
57778;SDS011;43608;49.486;9.640;2022-12-20T03:09:30;18.05;;;11.85;;
57778;SDS011;43608;49.486;9.640;2022-12-20T03:10:02;19.35;;;12.35;;
57778;SDS011;43608;49.486;9.640;2022-12-20T03:10:33;19.75;;;12.55;;
57778;SDS011;43608;49.486;9.640;2022-12-20T03:11:03;19.92;;;13.18;;
57778;SDS011;43608;49.486;9.640;2022-12-20T03:11:34;18.63;;;12.20;;
57778;SDS011;43608;49.486;9.640;2022-12-20T03:12:05;20.83;;;13.07;;
57778;SDS011;43608;49.486;9.640;2022-12-20T03:12:36;20.60;;;13.05;;
57778;SDS011;43608;49.486;9.640;2022-12-20T03:13:06;19.33;;;12.75;;
57778;SDS011;43608;49.486;9.640;2022-12-20T03:13:36;19.00;;;12.38;;
57778;SDS011;43608;49.486;9.640;2022-12-20T03:14:07;20.30;;;13.00;;
57778;SDS011;43608;49.486;9.640;2022-12-20T03:14:38;19.73;;;12.82;;
57778;SDS011;43608;49.486;9.640;2022-12-20T03:15:09;20.63;;;12.65;;
57778;SDS011;43608;49.486;9.640;2022-12-20T03:15:39;18.67;;;12.52;;
57778;SDS011;43608;49.486;9.640;2022-12-20T03:16:10;19.10;;;12.07;;
57778;SDS011;43608;49.486;9.640;2022-12-20T03:16:40;18.55;;;12.10;;
57778;SDS011;43608;49.486;9.640;2022-12-20T03:17:11;19.70;;;12.90;;
57778;SDS011;43608;49.486;9.640;2022-12-20T03:17:41;20.20;;;13.65;;
57778;SDS011;43608;49.486;9.640;2022-12-20T03:18:11;19.08;;;12.50;;
57778;SDS011;43608;49.486;9.640;2022-12-20T03:18:42;18.08;;;12.38;;
57778;SDS011;43608;49.486;9.640;2022-12-20T03:19:14;19.25;;;12.07;;
57778;SDS011;43608;49.486;9.640;2022-12-20T03:19:45;19.73;;;12.65;;
57778;SDS011;43608;49.486;9.640;2022-12-20T03:20:15;18.70;;;12.68;;
57778;SDS011;43608;49.486;9.640;2022-12-20T03:20:45;19.05;;;12.63;;
57778;SDS011;43608;49.486;9.640;2022-12-20T03:21:16;20.02;;;12.25;;
57778;SDS011;43608;49.486;9.640;2022-12-20T03:21:46;19.30;;;12.95;;
57778;SDS011;43608;49.486;9.640;2022-12-20T03:22:17;19.58;;;13.52;;
57778;SDS011;43608;49.486;9.640;2022-12-20T03:22:47;20.02;;;13.43;;
57778;SDS011;43608;49.486;9.640;2022-12-20T03:23:17;19.33;;;13.25;;
57778;SDS011;43608;49.486;9.640;2022-12-20T03:23:48;19.35;;;12.85;;
57778;SDS011;43608;49.486;9.640;2022-12-20T03:24:18;21.50;;;13.70;;